sensor_id;sensor_type;location;lat;lon;timestamp;P1;durP1;ratioP1;P2;durP2;ratioP2
2848;SDS011;59355;52.416;13.412;2022-11-15T00:01:19;43.90;;;31.20;;
2848;SDS011;59355;52.416;13.412;2022-11-15T00:03:45;38.20;;;30.77;;
2848;SDS011;59355;52.416;13.412;2022-11-15T00:06:11;39.30;;;30.80;;
2848;SDS011;59355;52.416;13.412;2022-11-15T00:08:36;38.63;;;33.03;;
2848;SDS011;59355;52.416;13.412;2022-11-15T00:11:02;37.30;;;30.37;;
2848;SDS011;59355;52.416;13.412;2022-11-15T00:13:28;41.53;;;31.90;;
2848;SDS011;59355;52.416;13.412;2022-11-15T00:15:56;42.40;;;31.70;;
2848;SDS011;59355;52.416;13.412;2022-11-15T00:18:25;41.13;;;31.47;;
2848;SDS011;59355;52.416;13.412;2022-11-15T00:20:51;42.73;;;30.47;;
2848;SDS011;59355;52.416;13.412;2022-11-15T00:23:16;44.37;;;33.20;;
2848;SDS011;59355;52.416;13.412;2022-11-15T00:25:41;49.23;;;34.07;;
2848;SDS011;59355;52.416;13.412;2022-11-15T00:28:07;50.57;;;37.07;;
2848;SDS011;59355;52.416;13.412;2022-11-15T00:30:32;44.00;;;31.70;;
2848;SDS011;59355;52.416;13.412;2022-11-15T00:33:04;42.37;;;32.07;;
2848;SDS011;59355;52.416;13.412;2022-11-15T00:35:33;42.30;;;31.90;;
2848;SDS011;59355;52.416;13.412;2022-11-15T00:37:59;40.40;;;32.50;;
2848;SDS011;59355;52.416;13.412;2022-11-15T00:40:25;42.90;;;31.20;;
2848;SDS011;59355;52.416;13.412;2022-11-15T00:42:50;41.40;;;32.07;;
2848;SDS011;59355;52.416;13.412;2022-11-15T00:45:16;36.30;;;29.40;;
2848;SDS011;59355;52.416;13.412;2022-11-15T00:47:43;41.40;;;31.40;;
2848;SDS011;59355;52.416;13.412;2022-11-15T00:50:10;38.17;;;29.87;;
2848;SDS011;59355;52.416;13.412;2022-11-15T00:52:35;39.43;;;27.43;;
2848;SDS011;59355;52.416;13.412;2022-11-15T00:55:00;38.53;;;30.33;;
2848;SDS011;59355;52.416;13.412;2022-11-15T00:57:25;37.50;;;30.83;;
2848;SDS011;59355;52.416;13.412;2022-11-15T00:59:51;35.13;;;28.33;;
2848;SDS011;59355;52.416;13.412;2022-11-15T01:02:16;38.30;;;29.40;;
2848;SDS011;59355;52.416;13.412;2022-11-15T01:04:41;37.50;;;28.53;;
2848;SDS011;59355;52.416;13.412;2022-11-15T01:07:07;35.77;;;28.87;;
2848;SDS011;59355;52.416;13.412;2022-11-15T01:09:32;40.00;;;29.27;;
2848;SDS011;59355;52.416;13.412;2022-11-15T01:11:57;36.90;;;29.10;;
2848;SDS011;59355;52.416;13.412;2022-11-15T01:14:23;37.93;;;29.17;;
2848;SDS011;59355;52.416;13.412;2022-11-15T01:16:48;35.23;;;27.63;;
2848;SDS011;59355;52.416;13.412;2022-11-15T01:19:13;34.77;;;30.00;;
2848;SDS011;59355;52.416;13.412;2022-11-15T01:21:39;37.17;;;28.77;;
2848;SDS011;59355;52.416;13.412;2022-11-15T01:24:04;40.63;;;32.80;;
2848;SDS011;59355;52.416;13.412;2022-11-15T01:26:29;38.60;;;30.67;;
2848;SDS011;59355;52.416;13.412;2022-11-15T01:28:55;35.90;;;27.87;;
2848;SDS011;59355;52.416;13.412;2022-11-15T01:31:20;39.23;;;28.73;;
2848;SDS011;59355;52.416;13.412;2022-11-15T01:33:46;39.30;;;31.07;;
2848;SDS011;59355;52.416;13.412;2022-11-15T01:36:13;42.17;;;30.10;;
2848;SDS011;59355;52.416;13.412;2022-11-15T01:38:40;38.40;;;29.67;;
2848;SDS011;59355;52.416;13.412;2022-11-15T01:41:05;39.57;;;31.63;;
2848;SDS011;59355;52.416;13.412;2022-11-15T01:43:32;41.50;;;32.10;;
2848;SDS011;59355;52.416;13.412;2022-11-15T01:46:01;39.27;;;31.33;;
2848;SDS011;59355;52.416;13.412;2022-11-15T01:48:31;37.40;;;29.20;;
2848;SDS011;59355;52.416;13.412;2022-11-15T01:50:58;40.37;;;28.67;;
2848;SDS011;59355;52.416;13.412;2022-11-15T01:53:24;37.37;;;29.80;;
2848;SDS011;59355;52.416;13.412;2022-11-15T01:55:50;40.53;;;31.10;;
2848;SDS011;59355;52.416;13.412;2022-11-15T01:58:16;43.50;;;32.20;;
2848;SDS011;59355;52.416;13.412;2022-11-15T02:00:41;40.40;;;32.07;;
2848;SDS011;59355;52.416;13.412;2022-11-15T02:03:06;36.77;;;29.50;;
2848;SDS011;59355;52.416;13.412;2022-11-15T02:05:32;36.70;;;29.13;;
2848;SDS011;59355;52.416;13.412;2022-11-15T02:07:57;36.47;;;28.90;;
2848;SDS011;59355;52.416;13.412;2022-11-15T02:10:24;40.80;;;30.90;;
2848;SDS011;59355;52.416;13.412;2022-11-15T02:12:50;41.47;;;32.37;;
2848;SDS011;59355;52.416;13.412;2022-11-15T02:15:16;40.77;;;31.33;;
2848;SDS011;59355;52.416;13.412;2022-11-15T02:18:04;36.43;;;30.10;;
2848;SDS011;59355;52.416;13.412;2022-11-15T02:23:43;38.20;;;29.70;;
2848;SDS011;59355;52.416;13.412;2022-11-15T02:26:40;38.20;;;30.10;;
2848;SDS011;59355;52.416;13.412;2022-11-15T02:32:33;37.63;;;29.40;;
2848;SDS011;59355;52.416;13.412;2022-11-15T02:37:55;34.80;;;27.33;;
2848;SDS011;59355;52.416;13.412;2022-11-15T02:43:08;32.37;;;25.33;;
2848;SDS011;59355;52.416;13.412;2022-11-15T02:45:56;37.90;;;30.00;;
2848;SDS011;59355;52.416;13.412;2022-11-15T02:48:35;36.10;;;28.80;;
2848;SDS011;59355;52.416;13.412;2022-11-15T02:51:00;34.30;;;27.93;;
2848;SDS011;59355;52.416;13.412;2022-11-15T02:53:26;34.00;;;29.20;;
2848;SDS011;59355;52.416;13.412;2022-11-15T02:55:52;34.03;;;27.33;;
2848;SDS011;59355;52.416;13.412;2022-11-15T02:58:32;35.87;;;30.30;;
2848;SDS011;59355;52.416;13.412;2022-11-15T03:03:57;37.93;;;29.30;;
2848;SDS011;59355;52.416;13.412;2022-11-15T03:12:03;32.57;;;26.67;;
2848;SDS011;59355;52.416;13.412;2022-11-15T03:15:06;33.40;;;27.30;;
2848;SDS011;59355;52.416;13.412;2022-11-15T03:18:04;34.60;;;27.40;;
2848;SDS011;59355;52.416;13.412;2022-11-15T03:20:31;34.53;;;26.90;;
2848;SDS011;59355;52.416;13.412;2022-11-15T03:23:00;38.73;;;27.50;;
2848;SDS011;59355;52.416;13.412;2022-11-15T03:25:27;37.20;;;28.67;;
2848;SDS011;59355;52.416;13.412;2022-11-15T03:27:55;39.70;;;30.90;;
2848;SDS011;59355;52.416;13.412;2022-11-15T03:30:21;35.73;;;26.60;;
2848;SDS011;59355;52.416;13.412;2022-11-15T03:32:48;38.67;;;29.03;;
2848;SDS011;59355;52.416;13.412;2022-11-15T03:35:18;34.43;;;27.30;;
2848;SDS011;59355;52.416;13.412;2022-11-15T03:40:24;37.30;;;28.50;;
2848;SDS011;59355;52.416;13.412;2022-11-15T03:42:57;35.83;;;27.27;;
2848;SDS011;59355;52.416;13.412;2022-11-15T03:45:28;38.80;;;28.07;;
2848;SDS011;59355;52.416;13.412;2022-11-15T03:48:05;37.03;;;28.30;;
2848;SDS011;59355;52.416;13.412;2022-11-15T03:50:35;37.50;;;28.50;;
2848;SDS011;59355;52.416;13.412;2022-11-15T03:53:01;35.87;;;28.43;;
2848;SDS011;59355;52.416;13.412;2022-11-15T03:55:26;37.23;;;27.53;;
2848;SDS011;59355;52.416;13.412;2022-11-15T03:57:53;38.20;;;28.97;;
2848;SDS011;59355;52.416;13.412;2022-11-15T04:00:20;38.30;;;29.67;;
2848;SDS011;59355;52.416;13.412;2022-11-15T04:02:45;36.93;;;28.20;;
2848;SDS011;59355;52.416;13.412;2022-11-15T04:05:11;37.53;;;28.50;;
2848;SDS011;59355;52.416;13.412;2022-11-15T04:07:36;37.90;;;28.57;;
2848;SDS011;59355;52.416;13.412;2022-11-15T04:10:02;35.70;;;29.90;;
2848;SDS011;59355;52.416;13.412;2022-11-15T04:12:35;38.90;;;30.77;;
2848;SDS011;59355;52.416;13.412;2022-11-15T04:15:02;38.97;;;28.93;;
2848;SDS011;59355;52.416;13.412;2022-11-15T04:17:49;36.57;;;28.10;;
2848;SDS011;59355;52.416;13.412;2022-11-15T04:20:19;37.67;;;28.43;;
2848;SDS011;59355;52.416;13.412;2022-11-15T04:23:06;30.40;;;26.13;;
2848;SDS011;59355;52.416;13.412;2022-11-15T04:25:51;34.40;;;27.30;;
2848;SDS011;59355;52.416;13.412;2022-11-15T04:28:18;35.50;;;27.03;;
2848;SDS011;59355;52.416;13.412;2022-11-15T04:30:43;37.90;;;29.37;;
2848;SDS011;59355;52.416;13.412;2022-11-15T04:33:08;34.80;;;28.00;;
2848;SDS011;59355;52.416;13.412;2022-11-15T04:35:34;41.87;;;29.83;;
2848;SDS011;59355;52.416;13.412;2022-11-15T04:37:59;36.87;;;29.40;;
2848;SDS011;59355;52.416;13.412;2022-11-15T04:40:25;37.97;;;30.40;;
2848;SDS011;59355;52.416;13.412;2022-11-15T04:42:50;39.47;;;30.03;;
2848;SDS011;59355;52.416;13.412;2022-11-15T04:45:15;38.13;;;29.40;;
2848;SDS011;59355;52.416;13.412;2022-11-15T04:47:42;40.33;;;29.87;;
2848;SDS011;59355;52.416;13.412;2022-11-15T04:50:08;38.03;;;29.67;;
2848;SDS011;59355;52.416;13.412;2022-11-15T04:52:37;36.50;;;27.60;;
2848;SDS011;59355;52.416;13.412;2022-11-15T04:55:02;39.20;;;29.03;;
2848;SDS011;59355;52.416;13.412;2022-11-15T04:57:28;33.17;;;26.47;;
2848;SDS011;59355;52.416;13.412;2022-11-15T04:59:53;36.73;;;27.60;;
2848;SDS011;59355;52.416;13.412;2022-11-15T05:02:18;39.30;;;29.70;;
2848;SDS011;59355;52.416;13.412;2022-11-15T05:04:44;38.10;;;30.17;;
2848;SDS011;59355;52.416;13.412;2022-11-15T05:07:09;35.37;;;27.30;;
2848;SDS011;59355;52.416;13.412;2022-11-15T05:09:34;37.97;;;29.77;;
2848;SDS011;59355;52.416;13.412;2022-11-15T05:12:00;35.10;;;29.43;;
2848;SDS011;59355;52.416;13.412;2022-11-15T05:14:25;42.30;;;31.97;;
2848;SDS011;59355;52.416;13.412;2022-11-15T05:16:50;34.87;;;27.80;;
2848;SDS011;59355;52.416;13.412;2022-11-15T05:19:16;34.73;;;25.63;;
2848;SDS011;59355;52.416;13.412;2022-11-15T05:21:41;37.20;;;27.30;;
2848;SDS011;59355;52.416;13.412;2022-11-15T05:24:06;37.37;;;27.67;;
2848;SDS011;59355;52.416;13.412;2022-11-15T05:26:31;38.63;;;27.80;;
2848;SDS011;59355;52.416;13.412;2022-11-15T05:28:57;38.03;;;29.97;;
2848;SDS011;59355;52.416;13.412;2022-11-15T05:31:23;37.83;;;28.90;;
2848;SDS011;59355;52.416;13.412;2022-11-15T05:33:49;38.00;;;28.07;;
2848;SDS011;59355;52.416;13.412;2022-11-15T05:36:18;34.17;;;27.10;;
2848;SDS011;59355;52.416;13.412;2022-11-15T05:38:48;37.03;;;28.50;;
2848;SDS011;59355;52.416;13.412;2022-11-15T05:41:13;36.37;;;27.80;;
2848;SDS011;59355;52.416;13.412;2022-11-15T05:43:40;37.83;;;28.23;;
2848;SDS011;59355;52.416;13.412;2022-11-15T05:46:06;31.27;;;26.37;;
2848;SDS011;59355;52.416;13.412;2022-11-15T05:48:33;35.67;;;26.00;;
2848;SDS011;59355;52.416;13.412;2022-11-15T05:50:59;39.20;;;30.43;;
2848;SDS011;59355;52.416;13.412;2022-11-15T05:53:24;38.90;;;27.17;;
2848;SDS011;59355;52.416;13.412;2022-11-15T05:55:51;37.17;;;28.70;;
2848;SDS011;59355;52.416;13.412;2022-11-15T05:58:16;37.97;;;29.63;;
2848;SDS011;59355;52.416;13.412;2022-11-15T06:00:42;38.47;;;30.60;;
2848;SDS011;59355;52.416;13.412;2022-11-15T06:03:08;39.50;;;28.70;;
2848;SDS011;59355;52.416;13.412;2022-11-15T06:05:33;39.43;;;30.10;;
2848;SDS011;59355;52.416;13.412;2022-11-15T06:07:58;37.33;;;31.07;;
2848;SDS011;59355;52.416;13.412;2022-11-15T06:10:24;34.03;;;25.70;;
2848;SDS011;59355;52.416;13.412;2022-11-15T06:12:56;30.57;;;25.93;;
2848;SDS011;59355;52.416;13.412;2022-11-15T06:15:24;35.90;;;28.10;;
2848;SDS011;59355;52.416;13.412;2022-11-15T06:17:50;38.60;;;28.70;;
2848;SDS011;59355;52.416;13.412;2022-11-15T06:20:15;34.97;;;25.90;;
2848;SDS011;59355;52.416;13.412;2022-11-15T06:22:40;35.93;;;26.00;;
2848;SDS011;59355;52.416;13.412;2022-11-15T06:25:06;34.67;;;25.80;;
2848;SDS011;59355;52.416;13.412;2022-11-15T06:27:31;38.83;;;27.50;;
2848;SDS011;59355;52.416;13.412;2022-11-15T06:29:56;36.90;;;29.40;;
2848;SDS011;59355;52.416;13.412;2022-11-15T06:32:22;36.60;;;28.77;;
2848;SDS011;59355;52.416;13.412;2022-11-15T06:34:47;39.20;;;28.40;;
2848;SDS011;59355;52.416;13.412;2022-11-15T06:37:12;35.40;;;26.10;;
2848;SDS011;59355;52.416;13.412;2022-11-15T06:39:38;34.20;;;28.67;;
2848;SDS011;59355;52.416;13.412;2022-11-15T06:42:03;39.57;;;26.73;;
2848;SDS011;59355;52.416;13.412;2022-11-15T06:44:28;35.23;;;29.77;;
2848;SDS011;59355;52.416;13.412;2022-11-15T06:46:53;36.27;;;28.40;;
2848;SDS011;59355;52.416;13.412;2022-11-15T06:49:19;41.73;;;30.27;;
2848;SDS011;59355;52.416;13.412;2022-11-15T06:51:44;36.37;;;28.50;;
2848;SDS011;59355;52.416;13.412;2022-11-15T06:54:09;31.17;;;24.83;;
2848;SDS011;59355;52.416;13.412;2022-11-15T06:56:35;37.60;;;29.70;;
2848;SDS011;59355;52.416;13.412;2022-11-15T06:59:00;40.97;;;29.90;;
2848;SDS011;59355;52.416;13.412;2022-11-15T07:01:25;36.07;;;28.27;;
2848;SDS011;59355;52.416;13.412;2022-11-15T07:03:51;38.70;;;28.27;;
2848;SDS011;59355;52.416;13.412;2022-11-15T07:06:16;37.20;;;28.30;;
2848;SDS011;59355;52.416;13.412;2022-11-15T07:08:41;35.93;;;29.03;;
2848;SDS011;59355;52.416;13.412;2022-11-15T07:11:07;33.50;;;26.27;;
2848;SDS011;59355;52.416;13.412;2022-11-15T07:13:33;36.60;;;28.20;;
2848;SDS011;59355;52.416;13.412;2022-11-15T07:16:06;41.77;;;31.50;;
2848;SDS011;59355;52.416;13.412;2022-11-15T07:18:33;37.23;;;28.10;;
2848;SDS011;59355;52.416;13.412;2022-11-15T07:21:09;38.10;;;30.47;;
2848;SDS011;59355;52.416;13.412;2022-11-15T07:23:36;39.33;;;29.40;;
2848;SDS011;59355;52.416;13.412;2022-11-15T07:26:02;37.70;;;28.17;;
2848;SDS011;59355;52.416;13.412;2022-11-15T07:28:27;38.13;;;30.03;;
2848;SDS011;59355;52.416;13.412;2022-11-15T07:30:53;37.57;;;32.07;;
2848;SDS011;59355;52.416;13.412;2022-11-15T07:33:19;39.57;;;29.83;;
2848;SDS011;59355;52.416;13.412;2022-11-15T07:35:44;39.20;;;30.13;;
2848;SDS011;59355;52.416;13.412;2022-11-15T07:38:13;40.80;;;31.37;;
2848;SDS011;59355;52.416;13.412;2022-11-15T07:40:39;36.97;;;30.03;;
2848;SDS011;59355;52.416;13.412;2022-11-15T07:43:05;39.57;;;30.90;;
2848;SDS011;59355;52.416;13.412;2022-11-15T07:45:31;44.33;;;32.90;;
2848;SDS011;59355;52.416;13.412;2022-11-15T07:47:58;44.60;;;32.67;;
2848;SDS011;59355;52.416;13.412;2022-11-15T07:50:24;40.93;;;32.03;;
2848;SDS011;59355;52.416;13.412;2022-11-15T07:52:53;43.20;;;31.23;;
2848;SDS011;59355;52.416;13.412;2022-11-15T07:55:19;41.90;;;31.57;;
2848;SDS011;59355;52.416;13.412;2022-11-15T07:57:45;45.60;;;34.03;;
2848;SDS011;59355;52.416;13.412;2022-11-15T08:00:10;38.80;;;31.33;;
2848;SDS011;59355;52.416;13.412;2022-11-15T08:02:36;42.07;;;32.70;;
2848;SDS011;59355;52.416;13.412;2022-11-15T08:05:01;44.17;;;33.50;;
2848;SDS011;59355;52.416;13.412;2022-11-15T08:07:28;41.90;;;32.97;;
2848;SDS011;59355;52.416;13.412;2022-11-15T08:09:54;47.53;;;35.60;;
2848;SDS011;59355;52.416;13.412;2022-11-15T08:12:20;49.30;;;37.90;;
2848;SDS011;59355;52.416;13.412;2022-11-15T08:14:46;48.70;;;34.60;;
2848;SDS011;59355;52.416;13.412;2022-11-15T08:17:11;53.87;;;38.30;;
2848;SDS011;59355;52.416;13.412;2022-11-15T08:19:36;50.20;;;35.67;;
2848;SDS011;59355;52.416;13.412;2022-11-15T08:22:02;46.40;;;35.83;;
2848;SDS011;59355;52.416;13.412;2022-11-15T08:24:27;46.53;;;38.00;;
2848;SDS011;59355;52.416;13.412;2022-11-15T08:26:52;45.33;;;34.13;;
2848;SDS011;59355;52.416;13.412;2022-11-15T08:29:18;49.43;;;36.67;;
2848;SDS011;59355;52.416;13.412;2022-11-15T08:31:43;44.90;;;36.73;;
2848;SDS011;59355;52.416;13.412;2022-11-15T08:34:08;46.47;;;35.50;;
2848;SDS011;59355;52.416;13.412;2022-11-15T08:36:34;44.63;;;36.47;;
2848;SDS011;59355;52.416;13.412;2022-11-15T08:38:59;45.60;;;35.40;;
2848;SDS011;59355;52.416;13.412;2022-11-15T08:41:25;47.23;;;37.07;;
2848;SDS011;59355;52.416;13.412;2022-11-15T08:43:52;45.07;;;33.80;;
2848;SDS011;59355;52.416;13.412;2022-11-15T08:46:18;47.63;;;38.80;;
2848;SDS011;59355;52.416;13.412;2022-11-15T08:48:43;41.83;;;34.80;;
2848;SDS011;59355;52.416;13.412;2022-11-15T08:51:11;47.87;;;37.70;;
2848;SDS011;59355;52.416;13.412;2022-11-15T08:53:37;47.53;;;35.43;;
2848;SDS011;59355;52.416;13.412;2022-11-15T08:56:02;46.13;;;35.50;;
2848;SDS011;59355;52.416;13.412;2022-11-15T08:58:28;47.10;;;38.10;;
2848;SDS011;59355;52.416;13.412;2022-11-15T09:00:53;51.03;;;38.43;;
2848;SDS011;59355;52.416;13.412;2022-11-15T09:03:19;48.83;;;37.17;;
2848;SDS011;59355;52.416;13.412;2022-11-15T09:05:44;41.87;;;34.40;;
2848;SDS011;59355;52.416;13.412;2022-11-15T09:08:09;46.10;;;36.40;;
2848;SDS011;59355;52.416;13.412;2022-11-15T09:10:36;46.20;;;35.70;;
2848;SDS011;59355;52.416;13.412;2022-11-15T09:13:01;44.20;;;34.47;;
2848;SDS011;59355;52.416;13.412;2022-11-15T09:15:26;43.67;;;34.23;;
2848;SDS011;59355;52.416;13.412;2022-11-15T09:17:52;41.40;;;35.47;;
2848;SDS011;59355;52.416;13.412;2022-11-15T09:20:17;44.20;;;36.83;;
2848;SDS011;59355;52.416;13.412;2022-11-15T09:22:42;39.23;;;32.63;;
2848;SDS011;59355;52.416;13.412;2022-11-15T09:25:08;43.67;;;34.23;;
2848;SDS011;59355;52.416;13.412;2022-11-15T09:27:33;41.27;;;34.97;;
2848;SDS011;59355;52.416;13.412;2022-11-15T09:29:59;45.17;;;34.13;;
2848;SDS011;59355;52.416;13.412;2022-11-15T09:32:27;40.70;;;33.70;;
2848;SDS011;59355;52.416;13.412;2022-11-15T09:34:53;43.80;;;33.60;;
2848;SDS011;59355;52.416;13.412;2022-11-15T09:37:18;40.63;;;31.90;;
2848;SDS011;59355;52.416;13.412;2022-11-15T09:39:43;42.00;;;32.97;;
2848;SDS011;59355;52.416;13.412;2022-11-15T09:42:18;42.97;;;34.57;;
2848;SDS011;59355;52.416;13.412;2022-11-15T09:47:36;38.80;;;32.97;;
2848;SDS011;59355;52.416;13.412;2022-11-15T09:50:11;34.70;;;30.90;;
2848;SDS011;59355;52.416;13.412;2022-11-15T09:52:39;33.30;;;28.90;;
2848;SDS011;59355;52.416;13.412;2022-11-15T09:55:08;37.13;;;30.13;;
2848;SDS011;59355;52.416;13.412;2022-11-15T09:57:39;35.23;;;28.90;;
2848;SDS011;59355;52.416;13.412;2022-11-15T10:03:04;30.40;;;26.00;;
2848;SDS011;59355;52.416;13.412;2022-11-15T10:05:41;28.90;;;25.43;;
2848;SDS011;59355;52.416;13.412;2022-11-15T10:10:55;32.50;;;24.40;;
2848;SDS011;59355;52.416;13.412;2022-11-15T10:13:23;26.97;;;22.27;;
2848;SDS011;59355;52.416;13.412;2022-11-15T10:15:51;28.23;;;24.43;;
2848;SDS011;59355;52.416;13.412;2022-11-15T10:18:19;27.43;;;24.50;;
2848;SDS011;59355;52.416;13.412;2022-11-15T10:20:58;29.53;;;24.23;;
2848;SDS011;59355;52.416;13.412;2022-11-15T10:23:24;35.07;;;27.57;;
2848;SDS011;59355;52.416;13.412;2022-11-15T10:25:53;29.47;;;26.27;;
2848;SDS011;59355;52.416;13.412;2022-11-15T10:28:27;27.10;;;24.03;;
2848;SDS011;59355;52.416;13.412;2022-11-15T10:30:54;29.40;;;23.40;;
2848;SDS011;59355;52.416;13.412;2022-11-15T10:33:25;30.00;;;23.67;;
2848;SDS011;59355;52.416;13.412;2022-11-15T10:41:18;27.30;;;22.30;;
2848;SDS011;59355;52.416;13.412;2022-11-15T10:43:57;27.83;;;20.73;;
2848;SDS011;59355;52.416;13.412;2022-11-15T10:46:38;23.93;;;21.03;;
2848;SDS011;59355;52.416;13.412;2022-11-15T10:49:15;24.70;;;22.10;;
2848;SDS011;59355;52.416;13.412;2022-11-15T10:54:24;29.27;;;21.40;;
2848;SDS011;59355;52.416;13.412;2022-11-15T10:56:53;23.93;;;21.03;;
2848;SDS011;59355;52.416;13.412;2022-11-15T10:59:27;26.07;;;20.70;;
2848;SDS011;59355;52.416;13.412;2022-11-15T11:01:53;23.77;;;20.90;;
2848;SDS011;59355;52.416;13.412;2022-11-15T11:04:19;21.00;;;18.33;;
2848;SDS011;59355;52.416;13.412;2022-11-15T11:11:59;23.70;;;21.20;;
2848;SDS011;59355;52.416;13.412;2022-11-15T11:14:26;22.70;;;18.57;;
2848;SDS011;59355;52.416;13.412;2022-11-15T11:24:56;23.87;;;20.27;;
2848;SDS011;59355;52.416;13.412;2022-11-15T11:27:32;19.67;;;17.60;;
2848;SDS011;59355;52.416;13.412;2022-11-15T11:30:08;19.93;;;17.23;;
2848;SDS011;59355;52.416;13.412;2022-11-15T11:35:24;19.60;;;17.00;;
2848;SDS011;59355;52.416;13.412;2022-11-15T11:38:15;21.67;;;17.60;;
2848;SDS011;59355;52.416;13.412;2022-11-15T11:40:55;18.73;;;16.40;;
2848;SDS011;59355;52.416;13.412;2022-11-15T11:43:30;20.10;;;18.00;;
2848;SDS011;59355;52.416;13.412;2022-11-15T11:46:05;18.97;;;16.40;;
2848;SDS011;59355;52.416;13.412;2022-11-15T11:48:57;18.17;;;16.27;;
2848;SDS011;59355;52.416;13.412;2022-11-15T11:51:28;18.80;;;16.73;;
2848;SDS011;59355;52.416;13.412;2022-11-15T11:54:09;19.23;;;17.20;;
2848;SDS011;59355;52.416;13.412;2022-11-15T11:56:38;18.80;;;16.77;;
2848;SDS011;59355;52.416;13.412;2022-11-15T11:59:07;17.13;;;15.00;;
2848;SDS011;59355;52.416;13.412;2022-11-15T12:01:42;18.43;;;14.60;;
2848;SDS011;59355;52.416;13.412;2022-11-15T12:06:49;18.30;;;14.87;;
2848;SDS011;59355;52.416;13.412;2022-11-15T12:12:08;15.10;;;13.50;;
2848;SDS011;59355;52.416;13.412;2022-11-15T12:14:43;16.73;;;14.20;;
2848;SDS011;59355;52.416;13.412;2022-11-15T12:17:11;14.67;;;13.27;;
2848;SDS011;59355;52.416;13.412;2022-11-15T12:19:37;15.50;;;13.30;;
2848;SDS011;59355;52.416;13.412;2022-11-15T12:22:06;15.50;;;13.57;;
2848;SDS011;59355;52.416;13.412;2022-11-15T12:24:38;15.47;;;12.97;;
2848;SDS011;59355;52.416;13.412;2022-11-15T12:27:09;15.37;;;13.77;;
2848;SDS011;59355;52.416;13.412;2022-11-15T12:29:41;14.10;;;12.70;;
2848;SDS011;59355;52.416;13.412;2022-11-15T12:32:16;16.20;;;12.67;;
2848;SDS011;59355;52.416;13.412;2022-11-15T12:34:48;15.90;;;14.30;;
2848;SDS011;59355;52.416;13.412;2022-11-15T12:42:57;16.77;;;15.03;;
2848;SDS011;59355;52.416;13.412;2022-11-15T12:45:30;17.47;;;15.57;;
2848;SDS011;59355;52.416;13.412;2022-11-15T12:48:44;15.30;;;13.90;;
2848;SDS011;59355;52.416;13.412;2022-11-15T12:51:00;17.13;;;14.93;;
2848;SDS011;59355;52.416;13.412;2022-11-15T12:53:33;18.70;;;15.17;;
2848;SDS011;59355;52.416;13.412;2022-11-15T13:06:45;16.93;;;15.10;;
2848;SDS011;59355;52.416;13.412;2022-11-15T13:14:37;15.60;;;14.00;;
2848;SDS011;59355;52.416;13.412;2022-11-15T13:19:47;20.03;;;14.90;;
2848;SDS011;59355;52.416;13.412;2022-11-15T13:22:13;22.53;;;16.27;;
2848;SDS011;59355;52.416;13.412;2022-11-15T13:24:58;18.50;;;16.53;;
2848;SDS011;59355;52.416;13.412;2022-11-15T13:27:25;20.57;;;18.20;;
2848;SDS011;59355;52.416;13.412;2022-11-15T13:29:51;19.20;;;16.93;;
2848;SDS011;59355;52.416;13.412;2022-11-15T13:32:17;19.60;;;17.50;;
2848;SDS011;59355;52.416;13.412;2022-11-15T13:34:43;19.40;;;17.37;;
2848;SDS011;59355;52.416;13.412;2022-11-15T13:39:46;21.73;;;15.93;;
2848;SDS011;59355;52.416;13.412;2022-11-15T13:42:15;19.67;;;17.57;;
2848;SDS011;59355;52.416;13.412;2022-11-15T13:44:54;23.07;;;17.50;;
2848;SDS011;59355;52.416;13.412;2022-11-15T13:47:20;17.67;;;15.40;;
2848;SDS011;59355;52.416;13.412;2022-11-15T13:49:46;17.80;;;16.00;;
2848;SDS011;59355;52.416;13.412;2022-11-15T13:52:12;19.57;;;15.70;;
2848;SDS011;59355;52.416;13.412;2022-11-15T13:57:09;18.23;;;15.83;;
2848;SDS011;59355;52.416;13.412;2022-11-15T13:59:56;17.73;;;15.60;;
2848;SDS011;59355;52.416;13.412;2022-11-15T14:02:29;18.17;;;16.37;;
2848;SDS011;59355;52.416;13.412;2022-11-15T14:05:02;18.60;;;16.27;;
2848;SDS011;59355;52.416;13.412;2022-11-15T14:07:38;17.17;;;15.50;;
2848;SDS011;59355;52.416;13.412;2022-11-15T14:10:16;16.80;;;14.80;;
2848;SDS011;59355;52.416;13.412;2022-11-15T14:12:50;18.87;;;16.83;;
2848;SDS011;59355;52.416;13.412;2022-11-15T14:15:24;17.50;;;15.70;;
2848;SDS011;59355;52.416;13.412;2022-11-15T14:17:52;21.53;;;17.57;;
2848;SDS011;59355;52.416;13.412;2022-11-15T14:20:28;22.33;;;17.90;;
2848;SDS011;59355;52.416;13.412;2022-11-15T14:23:00;18.80;;;16.93;;
2848;SDS011;59355;52.416;13.412;2022-11-15T14:25:28;20.87;;;17.07;;
2848;SDS011;59355;52.416;13.412;2022-11-15T14:30:41;20.13;;;18.07;;
2848;SDS011;59355;52.416;13.412;2022-11-15T14:33:40;21.50;;;18.43;;
2848;SDS011;59355;52.416;13.412;2022-11-15T14:36:13;21.17;;;17.40;;
2848;SDS011;59355;52.416;13.412;2022-11-15T14:38:40;21.67;;;17.97;;
2848;SDS011;59355;52.416;13.412;2022-11-15T14:41:05;18.37;;;16.50;;
2848;SDS011;59355;52.416;13.412;2022-11-15T14:43:38;23.03;;;17.53;;
2848;SDS011;59355;52.416;13.412;2022-11-15T14:46:03;20.63;;;16.47;;
2848;SDS011;59355;52.416;13.412;2022-11-15T14:48:28;19.53;;;16.83;;
2848;SDS011;59355;52.416;13.412;2022-11-15T14:50:54;16.43;;;14.83;;
2848;SDS011;59355;52.416;13.412;2022-11-15T14:53:19;17.10;;;15.00;;
2848;SDS011;59355;52.416;13.412;2022-11-15T14:55:44;17.67;;;15.90;;
2848;SDS011;59355;52.416;13.412;2022-11-15T14:58:10;16.90;;;15.10;;
2848;SDS011;59355;52.416;13.412;2022-11-15T15:00:36;18.13;;;14.53;;
2848;SDS011;59355;52.416;13.412;2022-11-15T15:03:02;22.80;;;15.70;;
2848;SDS011;59355;52.416;13.412;2022-11-15T15:05:38;17.63;;;15.70;;
2848;SDS011;59355;52.416;13.412;2022-11-15T15:08:05;16.53;;;14.80;;
2848;SDS011;59355;52.416;13.412;2022-11-15T15:10:50;17.13;;;15.33;;
2848;SDS011;59355;52.416;13.412;2022-11-15T15:13:19;17.70;;;15.80;;
2848;SDS011;59355;52.416;13.412;2022-11-15T15:15:46;19.57;;;15.97;;
2848;SDS011;59355;52.416;13.412;2022-11-15T15:18:12;21.33;;;16.30;;
2848;SDS011;59355;52.416;13.412;2022-11-15T15:20:38;19.47;;;15.50;;
2848;SDS011;59355;52.416;13.412;2022-11-15T15:23:04;18.47;;;16.57;;
2848;SDS011;59355;52.416;13.412;2022-11-15T15:25:30;19.20;;;17.10;;
2848;SDS011;59355;52.416;13.412;2022-11-15T15:27:57;19.00;;;17.10;;
2848;SDS011;59355;52.416;13.412;2022-11-15T15:30:23;18.63;;;16.03;;
2848;SDS011;59355;52.416;13.412;2022-11-15T15:32:49;18.83;;;15.60;;
2848;SDS011;59355;52.416;13.412;2022-11-15T15:35:15;16.37;;;14.60;;
2848;SDS011;59355;52.416;13.412;2022-11-15T15:37:41;18.47;;;16.57;;
2848;SDS011;59355;52.416;13.412;2022-11-15T15:40:18;18.17;;;16.37;;
2848;SDS011;59355;52.416;13.412;2022-11-15T15:42:45;17.53;;;14.63;;
2848;SDS011;59355;52.416;13.412;2022-11-15T15:45:11;17.50;;;15.60;;
2848;SDS011;59355;52.416;13.412;2022-11-15T15:47:38;18.93;;;15.97;;
2848;SDS011;59355;52.416;13.412;2022-11-15T15:50:04;17.33;;;15.43;;
2848;SDS011;59355;52.416;13.412;2022-11-15T15:52:39;17.77;;;15.97;;
2848;SDS011;59355;52.416;13.412;2022-11-15T15:55:05;15.60;;;14.07;;
2848;SDS011;59355;52.416;13.412;2022-11-15T15:57:30;15.83;;;14.33;;
2848;SDS011;59355;52.416;13.412;2022-11-15T15:59:56;16.73;;;14.80;;
2848;SDS011;59355;52.416;13.412;2022-11-15T16:02:21;18.53;;;16.10;;